EDT,Max TemperatureF,Mean TemperatureF,Min TemperatureF,Max Dew PointF,MeanDew PointF,Min DewpointF,Max Humidity, Mean Humidity, Min Humidity, Max Sea Level PressureIn, Mean Sea Level PressureIn, Min Sea Level PressureIn, Max VisibilityMiles, Mean VisibilityMiles, Min VisibilityMiles, Max Wind SpeedMPH, Mean Wind SpeedMPH, Max Gust SpeedMPH,PrecipitationIn, CloudCover, Events, WindDirDegrees
2012-9-1,87,80,72,76,72,70,93,77,61,30.21,30.13,30.05,10,10,9,13,3,17,0.05,5,Rain-Thunderstorm,180
2012-9-2,88,80,71,73,71,66,93,76,59,30.07,29.97,29.88,10,7,0,25,6,36,0.56,6,Rain-Thunderstorm,210
2012-9-3,79,75,71,72,71,69,93,84,74,29.98,29.93,29.89,10,6,2,13,4,16,0.28,8,Fog-Rain,164
2012-9-4,80,77,73,74,73,64,100,72,44,30.04,29.91,29.88,10,5,1,10,2,16,0.51,7,Rain,189
2012-9-5,88,81,73,73,72,68,94,74,53,29.97,29.91,29.84,10,7,2,21,3,25,T,7,Rain,170
2012-9-6,91,81,71,72,69,67,93,69,44,30.00,29.93,29.88,10,10,10,7,2,15,0.00,4,,321
2012-9-7,93,82,70,72,69,64,100,71,41,29.99,29.91,29.80,10,10,10,8,2,13,0.00,3,,201
2012-9-8,81,71,61,71,66,58,90,76,62,29.95,29.85,29.77,10,9,0,18,6,25,0.13,6,Rain,298
2012-9-9,81,69,57,57,55,53,93,66,39,30.06,29.99,29.92,10,10,10,13,4,17,0.00,1,,355
2012-9-10,84,71,58,61,57,53,93,65,37,30.15,30.10,30.05,10,10,10,9,2,14,0.00,2,,348
2012-9-11,83,71,59,60,58,55,90,65,40,30.26,30.20,30.14,10,10,10,10,2,14,0.00,3,,157
2012-9-12,83,72,61,62,59,54,93,65,37,30.34,30.26,30.21,10,10,10,10,2,14,0.00,6,,167
2012-9-13,82,73,63,63,58,53,93,66,39,30.34,30.27,30.21,10,10,10,12,2,14,0.00,5,,94
2012-9-14,82,71,60,64,60,57,90,70,49,30.27,30.23,30.17,10,10,10,8,1,10,0.00,5,,348
2012-9-15,86,73,60,64,61,56,97,69,40,30.22,30.16,30.09,10,10,10,12,2,20,0.00,3,,349
2012-9-16,85,76,66,67,63,62,87,68,48,30.12,30.06,30.00,10,10,10,8,1,10,0.00,7,,213
2012-9-17,78,74,70,72,69,65,97,85,73,30.02,29.90,29.74,10,5,0,10,2,14,2.07,7,Rain-Thunderstorm,135
2012-9-18,79,69,58,70,65,54,100,80,60,30.01,29.78,29.71,10,6,1,24,6,30,3.65,7,Rain,277
2012-9-19,75,64,53,55,49,43,87,63,38,30.12,30.06,30.01,10,10,10,17,7,21,0.00,0,,2
2012-9-20,79,67,55,61,56,52,93,68,42,30.15,30.09,30.02,10,10,9,12,2,15,0.00,3,,194
2012-9-21,83,71,58,63,56,43,93,60,26,30.09,30.03,29.95,10,9,6,13,4,16,0.00,2,,213
2012-9-22,85,72,58,63,58,49,87,62,36,30.09,30.01,29.97,10,10,10,16,7,22,0.00,2,,262
2012-9-23,77,65,53,53,44,31,93,56,19,30.22,30.16,30.10,10,10,10,13,4,16,0.00,0,,340
2012-9-24,74,61,48,50,44,40,86,58,29,30.26,30.20,30.14,10,10,10,14,3,18,0.00,2,,8
2012-9-25,80,65,50,58,51,47,89,64,39,30.21,30.16,30.11,10,10,10,13,3,18,0.00,4,,188
2012-9-26,83,70,57,62,58,54,93,70,47,30.21,30.16,30.12,10,10,10,9,3,12,0.00,3,,175
2012-9-27,85,72,59,66,61,56,93,69,44,30.22,30.15,30.08,10,10,8,12,2,15,0.00,4,,244
2012-9-28,86,75,63,67,64,59,93,67,40,30.13,30.06,29.99,10,10,10,10,2,14,T,6,Fog,299
2012-9-29,79,70,60,67,64,55,90,74,58,30.03,29.97,29.89,10,10,8,13,3,14,0.03,7,Rain,338
2012-9-30,72,64,56,61,58,53,87,78,68,29.94,29.87,29.80,10,9,3,10,4,13,0.10,7,Rain,20